createdAt,value
2022-11-08T00:02:22.000Z,12.25
2022-11-08T00:04:48.478Z,12.22
2022-11-08T00:07:33.606Z,12.20
2022-11-08T00:10:18.450Z,12.19
2022-11-08T00:13:03.317Z,12.20
2022-11-08T00:15:29.910Z,12.20
2022-11-08T00:17:56.727Z,12.15
2022-11-08T00:20:23.182Z,12.13
2022-11-08T00:22:49.649Z,12.11
2022-11-08T00:25:16.153Z,12.07
2022-11-08T00:27:42.574Z,12.02
2022-11-08T00:30:09.574Z,12.00
2022-11-08T00:32:35.985Z,11.97
2022-11-08T00:35:02.401Z,11.95
2022-11-08T00:37:28.873Z,11.93
2022-11-08T00:39:55.349Z,11.91
2022-11-08T00:42:21.828Z,11.91
2022-11-08T00:44:48.296Z,11.89
2022-11-08T00:47:14.780Z,11.86
2022-11-08T00:49:41.198Z,11.84
2022-11-08T00:52:07.688Z,11.81
2022-11-08T00:54:34.143Z,11.80
2022-11-08T00:57:00.634Z,11.78
2022-11-08T00:59:27.098Z,11.77
2022-11-08T01:01:53.649Z,11.74
2022-11-08T01:04:20.739Z,11.73
2022-11-08T01:06:47.652Z,11.71
2022-11-08T01:09:15.584Z,11.68
2022-11-08T01:11:46.303Z,11.66
2022-11-08T01:14:14.589Z,11.64
2022-11-08T01:16:41.929Z,11.62
2022-11-08T01:19:08.418Z,11.59
2022-11-08T01:21:34.852Z,11.56
2022-11-08T01:24:01.312Z,11.53
2022-11-08T01:26:29.729Z,11.51
2022-11-08T01:28:57.745Z,11.49
2022-11-08T01:31:27.581Z,11.47
2022-11-08T01:33:54.753Z,11.45
2022-11-08T01:36:23.972Z,11.44
2022-11-08T01:38:51.225Z,11.42
2022-11-08T01:41:19.673Z,11.40
2022-11-08T01:43:48.715Z,11.39
2022-11-08T01:46:18.354Z,11.37
2022-11-08T01:48:57.520Z,11.34
2022-11-08T01:51:30.580Z,11.32
2022-11-08T01:53:59.671Z,11.32
2022-11-08T01:56:27.086Z,11.30
2022-11-08T01:58:57.989Z,11.28
2022-11-08T02:01:24.564Z,11.26
2022-11-08T02:03:51.505Z,11.26
2022-11-08T02:06:18.764Z,11.25
2022-11-08T02:08:45.488Z,11.23
2022-11-08T02:11:14.879Z,11.19
2022-11-08T02:13:41.865Z,11.18
2022-11-08T02:16:13.140Z,11.16
2022-11-08T02:18:41.679Z,11.18
2022-11-08T02:21:32.373Z,11.16
2022-11-08T02:24:01.445Z,11.16
2022-11-08T02:26:35.828Z,11.16
2022-11-08T02:29:31.973Z,11.16
2022-11-08T02:32:00.060Z,11.14
2022-11-08T02:34:40.683Z,11.14
2022-11-08T02:37:07.565Z,11.13
2022-11-08T02:39:34.323Z,11.10
2022-11-08T02:42:02.260Z,11.10
2022-11-08T02:44:29.023Z,11.09
2022-11-08T02:46:55.602Z,11.06
2022-11-08T02:49:22.324Z,11.03
2022-11-08T02:51:48.757Z,11.01
2022-11-08T02:54:15.189Z,11.00
2022-11-08T02:56:41.600Z,10.99
2022-11-08T02:59:08.052Z,10.98
2022-11-08T03:01:34.595Z,10.98
2022-11-08T03:04:01.189Z,10.95
2022-11-08T03:06:27.590Z,10.93
2022-11-08T03:08:54.041Z,10.94
2022-11-08T03:11:20.444Z,10.94
2022-11-08T03:13:46.849Z,10.93
2022-11-08T03:16:13.338Z,10.93
2022-11-08T03:18:39.781Z,10.92
2022-11-08T03:21:06.467Z,10.90
2022-11-08T03:23:33.286Z,10.89
2022-11-08T03:26:04.046Z,10.90
2022-11-08T03:28:30.658Z,10.89
2022-11-08T03:30:57.144Z,10.89
2022-11-08T03:33:23.802Z,10.87
2022-11-08T03:35:51.128Z,10.87
2022-11-08T03:38:18.276Z,10.85
2022-11-08T03:40:45.768Z,10.84
2022-11-08T03:43:12.412Z,10.81
2022-11-08T03:45:38.849Z,10.81
2022-11-08T03:48:05.715Z,10.81
2022-11-08T03:50:32.227Z,10.79
2022-11-08T03:52:58.771Z,10.77
2022-11-08T03:55:27.504Z,10.79
2022-11-08T03:57:54.390Z,10.77
2022-11-08T04:00:23.834Z,10.75
2022-11-08T04:02:50.546Z,10.73
2022-11-08T04:05:17.390Z,10.73
2022-11-08T04:07:44.119Z,10.73
2022-11-08T04:10:11.882Z,10.71
2022-11-08T04:13:00.901Z,10.72
2022-11-08T04:15:29.072Z,10.72
2022-11-08T04:18:14.232Z,10.71
2022-11-08T04:21:01.495Z,10.73
2022-11-08T04:23:29.457Z,10.72
2022-11-08T04:26:06.960Z,10.72
2022-11-08T04:28:35.220Z,10.71
2022-11-08T04:31:05.034Z,10.70
2022-11-08T04:33:31.804Z,10.68
2022-11-08T04:36:09.742Z,10.67
2022-11-08T04:38:36.435Z,10.67
2022-11-08T04:41:13.775Z,10.64
2022-11-08T04:43:40.388Z,10.63
2022-11-08T04:46:09.325Z,10.62
2022-11-08T04:48:35.940Z,10.60
2022-11-08T04:51:04.982Z,10.58
2022-11-08T04:53:31.885Z,10.58
2022-11-08T04:56:06.920Z,10.57
2022-11-08T04:58:35.639Z,10.60
2022-11-08T05:01:03.602Z,10.60
2022-11-08T05:03:31.158Z,10.57
2022-11-08T05:06:08.178Z,10.58
2022-11-08T05:08:34.821Z,10.61
2022-11-08T05:11:08.718Z,10.60
2022-11-08T05:13:35.642Z,10.58
2022-11-08T05:16:04.924Z,10.56
2022-11-08T05:18:32.304Z,10.57
2022-11-08T05:21:18.423Z,10.57
2022-11-08T05:23:45.972Z,10.56
2022-11-08T05:26:13.169Z,10.54
2022-11-08T05:28:40.530Z,10.56
2022-11-08T05:31:08.125Z,10.58
2022-11-08T05:33:35.134Z,10.55
2022-11-08T05:36:06.792Z,10.57
2022-11-08T05:38:34.089Z,10.53
2022-11-08T05:41:09.020Z,10.54
2022-11-08T05:43:35.942Z,10.53
2022-11-08T05:46:02.590Z,10.50
2022-11-08T05:48:29.730Z,10.53
2022-11-08T05:50:56.365Z,10.51
2022-11-08T05:53:22.820Z,10.49
2022-11-08T05:55:49.597Z,10.48
2022-11-08T05:58:16.903Z,10.46
2022-11-08T06:00:43.385Z,10.45
2022-11-08T06:03:09.900Z,10.44
2022-11-08T06:05:36.440Z,10.43
2022-11-08T06:08:02.898Z,10.43
2022-11-08T06:10:29.339Z,10.42
2022-11-08T06:13:00.032Z,10.41
2022-11-08T06:15:26.678Z,10.38
2022-11-08T06:17:53.160Z,10.38
2022-11-08T06:20:19.570Z,10.36
2022-11-08T06:22:46.169Z,10.34
2022-11-08T06:25:12.796Z,10.34
2022-11-08T06:27:39.206Z,10.34
2022-11-08T06:30:06.475Z,10.35
2022-11-08T06:32:33.041Z,10.35
2022-11-08T06:34:59.608Z,10.33
2022-11-08T06:37:26.056Z,10.31
2022-11-08T06:39:52.463Z,10.30
2022-11-08T06:42:18.882Z,10.29
2022-11-08T06:44:45.326Z,10.29
2022-11-08T06:47:11.756Z,10.29
2022-11-08T06:49:38.266Z,10.29
2022-11-08T06:52:04.769Z,10.30
2022-11-08T06:54:31.420Z,10.28
2022-11-08T06:57:00.465Z,10.30
2022-11-08T06:59:27.547Z,10.30
2022-11-08T07:01:54.549Z,10.33
2022-11-08T07:04:21.421Z,10.33
2022-11-08T07:06:47.861Z,10.32
2022-11-08T07:09:14.325Z,10.31
2022-11-08T07:11:40.772Z,10.30
2022-11-08T07:14:07.197Z,10.30
2022-11-08T07:16:33.687Z,10.34
2022-11-08T07:19:00.232Z,10.36
2022-11-08T07:21:26.691Z,10.37
2022-11-08T07:23:53.124Z,10.39
2022-11-08T07:26:19.594Z,10.41
2022-11-08T07:28:46.074Z,10.45
2022-11-08T07:31:12.514Z,10.49
2022-11-08T07:33:39.049Z,10.52
2022-11-08T07:36:05.706Z,10.54
2022-11-08T07:38:33.292Z,10.60
2022-11-08T07:41:02.203Z,10.62
2022-11-08T07:43:29.590Z,10.65
2022-11-08T07:46:01.792Z,10.68
2022-11-08T07:48:30.097Z,10.71
2022-11-08T07:50:56.641Z,10.75
2022-11-08T07:53:23.533Z,10.79
2022-11-08T07:55:50.161Z,10.83
2022-11-08T07:58:17.000Z,10.88
2022-11-08T08:00:45.026Z,10.92
2022-11-08T08:03:13.759Z,10.97
2022-11-08T08:05:42.894Z,11.01
2022-11-08T08:08:10.747Z,11.04
2022-11-08T08:10:37.960Z,11.07
2022-11-08T08:13:05.106Z,11.10
2022-11-08T08:15:32.418Z,11.16
2022-11-08T08:18:03.847Z,11.19
2022-11-08T08:20:31.738Z,11.21
2022-11-08T08:22:59.121Z,11.23
2022-11-08T08:25:27.017Z,11.25
2022-11-08T08:27:55.189Z,11.27
2022-11-08T08:30:22.761Z,11.29
2022-11-08T08:33:02.172Z,11.32
2022-11-08T08:35:36.324Z,11.36
2022-11-08T08:38:03.443Z,11.37
2022-11-08T08:40:31.013Z,11.39
2022-11-08T08:43:01.090Z,11.41
2022-11-08T08:45:28.320Z,11.45
2022-11-08T08:47:56.343Z,11.47
2022-11-08T08:50:23.732Z,11.50
2022-11-08T08:52:50.268Z,11.53
2022-11-08T08:55:17.540Z,11.56
2022-11-08T08:57:45.688Z,11.57
2022-11-08T09:03:08.558Z,11.64
2022-11-08T09:05:35.654Z,11.67
2022-11-08T09:08:02.519Z,11.71
2022-11-08T09:10:29.591Z,11.75
2022-11-08T09:12:56.085Z,11.80
2022-11-08T09:15:22.594Z,11.83
2022-11-08T09:17:49.066Z,11.88
2022-11-08T09:20:16.048Z,11.88
2022-11-08T09:22:42.483Z,11.90
2022-11-08T09:25:10.493Z,11.91
2022-11-08T09:27:37.093Z,11.91
2022-11-08T09:30:04.459Z,11.95
2022-11-08T09:32:46.562Z,11.97
2022-11-08T09:35:17.305Z,12.00
2022-11-08T09:37:47.101Z,12.01
2022-11-08T09:40:24.068Z,12.04
2022-11-08T09:43:02.530Z,12.09
2022-11-08T09:45:47.906Z,12.15
2022-11-08T09:48:27.533Z,12.20
2022-11-08T09:50:57.392Z,12.21
2022-11-08T09:53:46.009Z,12.24
2022-11-08T09:56:34.672Z,12.30
2022-11-08T09:59:34.518Z,12.36
2022-11-08T10:02:01.147Z,12.44
2022-11-08T10:04:32.045Z,12.54
2022-11-08T10:07:07.602Z,12.62
2022-11-08T10:09:48.741Z,12.68
2022-11-08T10:12:31.587Z,12.70
2022-11-08T10:15:07.110Z,12.71
2022-11-08T10:18:10.922Z,12.74
2022-11-08T10:20:55.682Z,12.80
2022-11-08T10:23:39.310Z,12.82
2022-11-08T10:26:09.503Z,12.88
2022-11-08T10:28:50.537Z,12.93
2022-11-08T10:31:20.750Z,12.98
2022-11-08T10:33:49.364Z,13.02
2022-11-08T10:36:34.252Z,13.03
2022-11-08T10:39:09.717Z,13.03
2022-11-08T10:41:45.261Z,13.03
2022-11-08T10:44:24.224Z,13.01
2022-11-08T10:46:56.399Z,13.00
2022-11-08T10:49:27.445Z,13.02
2022-11-08T10:52:17.199Z,13.03
2022-11-08T10:54:57.871Z,13.08
2022-11-08T10:57:45.928Z,13.12
2022-11-08T11:00:27.442Z,13.18
2022-11-08T11:03:15.828Z,13.24
2022-11-08T11:05:55.024Z,13.32
2022-11-08T11:08:23.022Z,13.41
2022-11-08T11:10:50.219Z,13.47
2022-11-08T11:13:23.639Z,13.51
2022-11-08T11:15:55.952Z,13.54
2022-11-08T11:18:30.561Z,13.59
2022-11-08T11:21:04.460Z,13.64
2022-11-08T11:23:42.255Z,13.64
2022-11-08T11:26:18.691Z,13.68
2022-11-08T11:29:00.447Z,13.68
2022-11-08T11:31:26.844Z,13.71
2022-11-08T11:33:53.655Z,13.71
2022-11-08T11:36:23.682Z,13.77
2022-11-08T11:39:00.403Z,13.79
2022-11-08T11:41:53.586Z,13.82
2022-11-08T11:44:30.277Z,13.82
2022-11-08T11:46:56.669Z,13.84
2022-11-08T11:49:26.075Z,13.84
2022-11-08T11:51:54.998Z,13.84
2022-11-08T11:54:28.568Z,13.81
2022-11-08T11:57:08.226Z,13.80
2022-11-08T11:59:47.110Z,13.85
2022-11-08T12:02:32.451Z,13.97
2022-11-08T12:04:59.052Z,14.05
2022-11-08T12:07:32.942Z,14.13
2022-11-08T12:10:18.099Z,14.27
2022-11-08T12:12:50.606Z,14.30
2022-11-08T12:15:43.476Z,14.41
2022-11-08T12:18:40.926Z,14.49
2022-11-08T12:21:14.718Z,14.50
2022-11-08T12:23:59.540Z,14.55
2022-11-08T12:26:32.113Z,14.62
2022-11-08T12:29:03.225Z,14.71
2022-11-08T12:31:33.947Z,14.73
2022-11-08T12:34:21.329Z,14.74
2022-11-08T12:36:59.397Z,14.73
2022-11-08T12:39:45.206Z,14.68
2022-11-08T12:42:38.615Z,14.63
2022-11-08T12:45:26.253Z,14.63
2022-11-08T12:48:16.553Z,14.67
2022-11-08T12:51:01.487Z,14.65
2022-11-08T12:53:37.536Z,14.66
2022-11-08T12:56:05.553Z,14.64
2022-11-08T12:58:50.504Z,14.62
2022-11-08T13:01:19.252Z,14.58
2022-11-08T13:03:51.362Z,14.56
2022-11-08T13:06:27.094Z,14.56
2022-11-08T13:09:03.494Z,14.54
2022-11-08T13:11:42.272Z,14.52
2022-11-08T13:14:17.047Z,14.55
2022-11-08T13:17:13.753Z,14.58
2022-11-08T13:19:52.255Z,14.60
2022-11-08T13:22:33.958Z,14.61
2022-11-08T13:25:08.978Z,14.61
2022-11-08T13:27:43.606Z,14.62
2022-11-08T13:30:16.115Z,14.64
2022-11-08T13:33:00.534Z,14.63
2022-11-08T13:35:46.037Z,14.64
2022-11-08T13:38:27.835Z,14.66
2022-11-08T13:41:24.197Z,14.64
2022-11-08T13:43:53.314Z,14.64
2022-11-08T13:46:29.812Z,14.64
2022-11-08T13:49:01.866Z,14.63
2022-11-08T13:51:30.305Z,14.62
2022-11-08T13:53:58.387Z,14.62
2022-11-08T13:56:41.564Z,14.60
2022-11-08T13:59:29.968Z,14.59
2022-11-08T14:01:59.561Z,14.58
2022-11-08T14:04:46.485Z,14.56
2022-11-08T14:07:31.118Z,14.55
2022-11-08T14:10:11.612Z,14.53
2022-11-08T14:12:48.398Z,14.51
2022-11-08T14:15:22.588Z,14.51
2022-11-08T14:17:55.408Z,14.48
2022-11-08T14:20:24.941Z,14.47
2022-11-08T14:22:51.614Z,14.46
2022-11-08T14:25:17.987Z,14.43
2022-11-08T14:27:44.391Z,14.42
2022-11-08T14:30:16.213Z,14.40
2022-11-08T14:32:42.716Z,14.38
2022-11-08T14:35:27.866Z,14.37
2022-11-08T14:37:54.679Z,14.36
2022-11-08T14:40:22.882Z,14.35
2022-11-08T14:42:49.851Z,14.35
2022-11-08T14:45:20.632Z,14.34
2022-11-08T14:47:55.986Z,14.33
2022-11-08T14:50:24.283Z,14.33
2022-11-08T14:52:50.776Z,14.33
2022-11-08T14:55:23.825Z,14.31
2022-11-08T14:57:50.320Z,14.32
2022-11-08T15:00:28.309Z,14.31
2022-11-08T15:02:59.924Z,14.30
2022-11-08T15:05:40.363Z,14.31
2022-11-08T15:08:20.942Z,14.31
2022-11-08T15:11:04.412Z,14.31
2022-11-08T15:13:51.681Z,14.30
2022-11-08T15:16:18.390Z,14.30
2022-11-08T15:18:44.929Z,14.31
2022-11-08T15:21:26.386Z,14.29
2022-11-08T15:23:53.920Z,14.29
2022-11-08T15:26:24.422Z,14.27
2022-11-08T15:29:16.609Z,14.27
2022-11-08T15:31:49.303Z,14.25
2022-11-08T15:34:27.309Z,14.22
2022-11-08T15:36:53.876Z,14.22
2022-11-08T15:39:28.282Z,14.21
2022-11-08T15:42:02.951Z,14.20
2022-11-08T15:44:29.512Z,14.18
2022-11-08T15:46:56.632Z,14.15
2022-11-08T15:49:28.490Z,14.12
2022-11-08T15:51:58.613Z,14.10
2022-11-08T15:54:26.859Z,14.06
2022-11-08T15:56:56.060Z,14.04
2022-11-08T15:59:28.457Z,14.03
2022-11-08T16:01:58.748Z,13.99
2022-11-08T16:04:27.702Z,13.94
2022-11-08T16:06:55.227Z,13.87
2022-11-08T16:09:21.711Z,13.81
2022-11-08T16:11:49.016Z,13.77
2022-11-08T16:14:22.602Z,13.76
2022-11-08T16:16:49.287Z,13.76
2022-11-08T16:19:17.410Z,13.73
2022-11-08T16:21:43.935Z,13.69
2022-11-08T16:24:10.374Z,13.65
2022-11-08T16:26:36.825Z,13.60
2022-11-08T16:29:04.899Z,13.60
2022-11-08T16:31:31.398Z,13.58
2022-11-08T16:33:57.900Z,13.56
2022-11-08T16:36:27.783Z,13.55
2022-11-08T16:38:56.520Z,13.52
2022-11-08T16:41:24.694Z,13.51
2022-11-08T16:43:51.289Z,13.49
2022-11-08T16:46:21.719Z,13.47
2022-11-08T16:48:53.420Z,13.44
2022-11-08T16:51:21.502Z,13.42
2022-11-08T16:53:49.275Z,13.39
2022-11-08T16:56:16.008Z,13.37
2022-11-08T16:58:42.917Z,13.37
2022-11-08T17:01:17.259Z,13.36
2022-11-08T17:03:43.895Z,13.35
2022-11-08T17:06:15.864Z,13.36
2022-11-08T17:08:42.349Z,13.37
2022-11-08T17:11:10.259Z,13.38
2022-11-08T17:13:40.412Z,13.40
2022-11-08T17:16:09.834Z,13.42
2022-11-08T17:18:36.239Z,13.46
2022-11-08T17:21:29.828Z,13.47
2022-11-08T17:23:53.438Z,13.50
2022-11-08T17:26:19.956Z,13.51
2022-11-08T17:28:46.427Z,13.50
2022-11-08T17:31:18.848Z,13.49
2022-11-08T17:33:45.845Z,13.47
2022-11-08T17:36:13.875Z,13.45
2022-11-08T17:38:41.864Z,13.42
2022-11-08T17:41:10.958Z,13.41
2022-11-08T17:43:37.656Z,13.38
2022-11-08T17:46:04.432Z,13.39
2022-11-08T17:48:34.657Z,13.38
2022-11-08T17:51:01.199Z,13.36
2022-11-08T17:53:27.884Z,13.33
2022-11-08T17:55:54.449Z,13.32
2022-11-08T17:58:21.817Z,13.30
2022-11-08T18:00:57.104Z,13.27
2022-11-08T18:03:25.566Z,13.24
2022-11-08T18:06:13.268Z,13.23
2022-11-08T18:08:40.617Z,13.21
2022-11-08T18:11:07.041Z,13.19
2022-11-08T18:13:35.148Z,13.19
2022-11-08T18:16:13.185Z,13.20
2022-11-08T18:18:39.928Z,13.25
2022-11-08T18:21:07.882Z,13.29
2022-11-08T18:23:35.200Z,13.30
2022-11-08T18:26:01.857Z,13.30
2022-11-08T18:28:28.504Z,13.28
2022-11-08T18:30:55.045Z,13.29
2022-11-08T18:33:21.998Z,13.31
2022-11-08T18:35:48.570Z,13.33
2022-11-08T18:38:15.113Z,13.35
2022-11-08T18:40:45.296Z,13.38
2022-11-08T18:43:12.017Z,13.41
2022-11-08T18:45:38.551Z,13.40
2022-11-08T18:48:05.649Z,13.40
2022-11-08T18:50:32.540Z,13.39
2022-11-08T18:53:03.330Z,13.35
2022-11-08T18:55:31.496Z,13.32
2022-11-08T18:57:57.960Z,13.30
2022-11-08T19:00:24.757Z,13.29
2022-11-08T19:02:51.222Z,13.27
2022-11-08T19:05:17.888Z,13.26
2022-11-08T19:07:44.322Z,13.26
2022-11-08T19:10:10.947Z,13.25
2022-11-08T19:12:37.425Z,13.22
2022-11-08T19:15:04.057Z,13.21
2022-11-08T19:17:31.845Z,13.19
2022-11-08T19:19:58.328Z,13.18
2022-11-08T19:22:24.745Z,13.15
2022-11-08T19:24:51.178Z,13.13
2022-11-08T19:27:17.671Z,13.10
2022-11-08T19:29:44.112Z,13.08
2022-11-08T19:32:10.534Z,13.06
2022-11-08T19:34:37.028Z,13.04
2022-11-08T19:37:03.736Z,13.01
2022-11-08T19:39:30.307Z,13.01
2022-11-08T19:41:56.739Z,13.00
2022-11-08T19:44:23.397Z,12.98
2022-11-08T19:46:49.907Z,12.99
2022-11-08T19:49:16.416Z,12.99
2022-11-08T19:51:42.830Z,13.00
2022-11-08T19:54:12.869Z,12.98
2022-11-08T19:59:25.791Z,12.93
2022-11-08T20:01:52.440Z,12.94
2022-11-08T20:04:19.280Z,12.92
2022-11-08T20:06:48.840Z,12.91
2022-11-08T20:09:15.610Z,12.90
2022-11-08T20:11:42.701Z,12.88
2022-11-08T20:14:12.286Z,12.88
2022-11-08T20:16:42.762Z,12.90
2022-11-08T20:19:16.507Z,12.89
2022-11-08T20:21:46.072Z,12.89
2022-11-08T20:24:14.395Z,12.87
2022-11-08T20:26:41.470Z,12.87
2022-11-08T20:29:08.572Z,12.88
2022-11-08T20:31:35.575Z,12.87
2022-11-08T20:34:05.685Z,12.90
2022-11-08T20:36:35.344Z,12.94
2022-11-08T20:39:06.792Z,12.96
2022-11-08T20:41:35.579Z,12.95
2022-11-08T20:44:02.830Z,12.95
2022-11-08T20:46:29.666Z,12.93
2022-11-08T20:49:00.247Z,12.92
2022-11-08T20:51:28.169Z,12.93
2022-11-08T20:53:56.518Z,12.89
2022-11-08T20:56:24.239Z,12.86
2022-11-08T20:58:52.139Z,12.83
2022-11-08T21:01:25.179Z,12.80
2022-11-08T21:03:52.489Z,12.77
2022-11-08T21:06:24.802Z,12.74
2022-11-08T21:09:04.812Z,12.71
2022-11-08T21:11:36.848Z,12.68
2022-11-08T21:14:04.322Z,12.66
2022-11-08T21:16:35.387Z,12.64
2022-11-08T21:19:09.160Z,12.61
2022-11-08T21:21:35.797Z,12.62
2022-11-08T21:24:02.221Z,12.58
2022-11-08T21:26:28.672Z,12.57
2022-11-08T21:28:55.219Z,12.56
2022-11-08T21:31:21.684Z,12.54
2022-11-08T21:33:48.334Z,12.50
2022-11-08T21:36:15.288Z,12.49
2022-11-08T21:38:41.729Z,12.45
2022-11-08T21:41:10.240Z,12.42
2022-11-08T21:43:39.003Z,12.41
2022-11-08T21:46:18.180Z,12.39
2022-11-08T21:48:45.102Z,12.37
2022-11-08T21:51:11.790Z,12.36
2022-11-08T21:53:46.971Z,12.35
2022-11-08T21:56:16.039Z,12.34
2022-11-08T21:58:42.526Z,12.37
2022-11-08T22:01:08.994Z,12.36
2022-11-08T22:03:35.938Z,12.35
2022-11-08T22:06:02.658Z,12.35
2022-11-08T22:08:29.288Z,12.34
2022-11-08T22:10:55.799Z,12.31
2022-11-08T22:13:22.446Z,12.31
2022-11-08T22:15:48.861Z,12.32
2022-11-08T22:18:17.564Z,12.32
2022-11-08T22:21:07.278Z,12.31
2022-11-08T22:23:35.275Z,12.36
2022-11-08T22:26:02.540Z,12.36
2022-11-08T22:28:29.245Z,12.36
2022-11-08T22:30:55.804Z,12.37
2022-11-08T22:33:22.405Z,12.39
2022-11-08T22:35:49.732Z,12.41
2022-11-08T22:38:17.251Z,12.40
2022-11-08T22:40:45.668Z,12.40
2022-11-08T22:43:12.244Z,12.37
2022-11-08T22:45:42.868Z,12.35
2022-11-08T22:48:10.306Z,12.34
2022-11-08T22:50:37.456Z,12.33
2022-11-08T22:53:04.504Z,12.33
2022-11-08T22:55:30.982Z,12.32
2022-11-08T22:57:57.411Z,12.29
2022-11-08T23:00:23.895Z,12.25
2022-11-08T23:02:50.349Z,12.22
2022-11-08T23:05:16.908Z,12.23
2022-11-08T23:07:43.379Z,12.25
2022-11-08T23:10:10.418Z,12.28
2022-11-08T23:12:55.482Z,12.30
2022-11-08T23:15:40.490Z,12.33
2022-11-08T23:18:06.916Z,12.33
2022-11-08T23:20:52.388Z,12.35
2022-11-08T23:23:37.256Z,12.39
2022-11-08T23:26:03.992Z,12.40
2022-11-08T23:28:49.368Z,12.40
2022-11-08T23:31:34.213Z,12.44
2022-11-08T23:34:01.623Z,12.45
2022-11-08T23:36:31.349Z,12.45
2022-11-08T23:38:58.366Z,12.42
2022-11-08T23:41:43.165Z,12.39
2022-11-08T23:44:24.925Z,12.39
2022-11-08T23:46:56.503Z,12.40
2022-11-08T23:49:23.036Z,12.38
2022-11-08T23:51:49.914Z,12.35
2022-11-08T23:54:16.628Z,12.36
2022-11-08T23:56:43.642Z,12.34
2022-11-08T23:59:11.024Z,12.32
